Blackfords, United Kingdom
Current Conditions -  °F | °C
As of 8:20 AM on Friday 31 Oct 2014 (Local Time) from EGBB Reporting Station
Haze Haze  
Wind Chill: 57°   Ceiling: Unl
Heat Index: 57°   Visibility: 2.8mi
Dew Point: 55°   Wind: 7mph
Humidity: 94%   Direction: 160°SSE
Pressure: 29.97"   Gusts: NA
Location:  52.69°N, 2.03°W
Report Text: EGBB 310820Z 16006KT 4600 BR NSC 14/13 Q1015
Loading
Personal Weather Stations






























Interactive Weather Map
Tropical Storm Tracking
New forecast layout! Learn more

10-Day Weather Forecast

Advertisements
Track Severe Weather on mobile